createdAt,value
2023-04-12T00:00:44.795Z,6.40
2023-04-12T00:05:48.213Z,6.36
2023-04-12T00:10:52.683Z,6.25
2023-04-12T00:15:55.604Z,6.18
2023-04-12T00:20:58.348Z,6.29
2023-04-12T00:26:02.450Z,6.34
2023-04-12T00:31:05.598Z,6.40
2023-04-12T00:36:10.552Z,6.31
2023-04-12T00:41:15.753Z,6.46
2023-04-12T00:46:19.838Z,6.54
2023-04-12T00:51:22.798Z,6.58
2023-04-12T00:56:28.380Z,6.53
2023-04-12T01:01:31.911Z,6.52
2023-04-12T01:06:46.516Z,6.55
2023-04-12T01:12:01.683Z,6.53
2023-04-12T01:17:08.244Z,6.56
2023-04-12T01:22:18.164Z,6.44
2023-04-12T01:27:35.726Z,6.58
2023-04-12T01:32:40.091Z,6.52
2023-04-12T01:37:43.565Z,6.60
2023-04-12T01:42:47.710Z,6.61
2023-04-12T01:47:50.590Z,6.43
2023-04-12T01:53:03.006Z,6.47
2023-04-12T01:58:11.689Z,6.45
2023-04-12T02:03:15.210Z,6.60
2023-04-12T02:08:18.385Z,6.58
2023-04-12T02:13:23.393Z,6.68
2023-04-12T02:18:26.246Z,6.62
2023-04-12T02:23:29.193Z,6.49
2023-04-12T02:28:34.645Z,6.44
2023-04-12T02:33:37.606Z,6.57
2023-04-12T02:38:44.847Z,6.60
2023-04-12T02:43:49.469Z,6.61
2023-04-12T02:48:52.764Z,6.57
2023-04-12T02:53:57.986Z,6.56
2023-04-12T02:59:06.865Z,6.50
2023-04-12T03:04:32.984Z,6.59
2023-04-12T03:09:38.613Z,6.74
2023-04-12T03:14:43.396Z,6.77
2023-04-12T03:19:46.354Z,6.83
2023-04-12T03:24:55.619Z,6.93
2023-04-12T03:30:00.426Z,6.91
2023-04-12T03:35:04.565Z,6.95
2023-04-12T03:40:09.277Z,7.08
2023-04-12T03:45:13.866Z,7.14
2023-04-12T03:50:20.690Z,7.30
2023-04-12T03:55:30.178Z,7.37
2023-04-12T04:00:37.258Z,7.44
2023-04-12T04:05:44.080Z,7.53
2023-04-12T04:10:47.841Z,7.41
2023-04-12T04:15:59.846Z,7.26
2023-04-12T04:21:03.958Z,7.16
2023-04-12T04:26:10.815Z,6.95
2023-04-12T04:31:22.366Z,7.09
2023-04-12T04:36:26.623Z,7.13
2023-04-12T04:41:34.625Z,7.12
2023-04-12T04:46:39.657Z,7.42
2023-04-12T04:51:42.540Z,7.35
2023-04-12T04:56:48.930Z,7.46
2023-04-12T05:01:55.037Z,7.46
2023-04-12T05:06:57.869Z,7.23
2023-04-12T05:12:02.345Z,7.54
2023-04-12T05:17:07.185Z,7.57
2023-04-12T05:22:09.918Z,7.67
2023-04-12T05:27:13.386Z,7.62
2023-04-12T05:32:17.601Z,7.71
2023-04-12T05:37:20.444Z,7.70
2023-04-12T05:42:23.220Z,7.86
2023-04-12T05:47:27.386Z,8.00
2023-04-12T05:52:33.102Z,8.05
2023-04-12T05:57:36.724Z,7.85
2023-04-12T06:02:41.749Z,8.22
2023-04-12T06:07:46.918Z,8.24
2023-04-12T06:12:49.837Z,8.23
2023-04-12T06:17:55.745Z,8.34
2023-04-12T06:22:58.527Z,8.07
2023-04-12T06:28:01.738Z,8.07
2023-04-12T06:33:06.123Z,8.35
2023-04-12T06:38:09.026Z,8.50
2023-04-12T06:43:11.770Z,8.36
2023-04-12T06:48:15.990Z,8.42
2023-04-12T06:53:18.813Z,8.61
2023-04-12T06:58:21.605Z,8.46
2023-04-12T07:03:28.381Z,8.16
2023-04-12T07:08:31.376Z,8.10
2023-04-12T07:13:34.094Z,7.63
2023-04-12T07:18:40.209Z,7.81
2023-04-12T07:23:43.238Z,7.90
2023-04-12T07:28:46.322Z,7.94
2023-04-12T07:33:50.766Z,7.89
2023-04-12T07:38:55.676Z,7.78
2023-04-12T07:43:58.830Z,7.70
2023-04-12T07:49:03.588Z,7.71
2023-04-12T07:54:06.380Z,7.87
2023-04-12T07:59:09.164Z,7.87
2023-04-12T08:04:13.485Z,7.63
2023-04-12T08:09:16.457Z,7.97
2023-04-12T08:14:19.213Z,7.59
2023-04-12T08:19:23.293Z,7.72
2023-04-12T08:24:25.977Z,7.90
2023-04-12T08:29:28.517Z,7.82
2023-04-12T08:34:33.082Z,8.22
2023-04-12T08:39:35.762Z,7.98
2023-04-12T08:44:39.346Z,7.84
2023-04-12T08:49:43.468Z,7.58
2023-04-12T08:54:46.142Z,7.51
2023-04-12T08:59:50.982Z,7.65
2023-04-12T09:04:55.577Z,7.97
2023-04-12T09:09:59.658Z,8.31
2023-04-12T09:15:10.018Z,7.92
2023-04-12T09:20:26.161Z,8.39
2023-04-12T09:25:48.361Z,8.66
2023-04-12T09:30:53.285Z,8.47
2023-04-12T09:36:01.539Z,8.56
2023-04-12T09:41:18.979Z,8.75
2023-04-12T09:46:23.692Z,9.17
2023-04-12T09:51:29.448Z,8.79
2023-04-12T09:56:34.307Z,9.57
2023-04-12T10:01:40.022Z,9.89
2023-04-12T10:06:45.894Z,10.05
2023-04-12T10:11:51.961Z,10.22
2023-04-12T10:16:57.981Z,10.03
2023-04-12T10:22:02.811Z,9.83
2023-04-12T10:27:06.706Z,9.90
2023-04-12T10:32:23.167Z,10.36
2023-04-12T10:37:59.078Z,9.58
2023-04-12T10:43:27.698Z,9.88
2023-04-12T10:48:32.240Z,9.49
2023-04-12T10:53:36.371Z,9.77
2023-04-12T10:58:57.313Z,9.70
2023-04-12T11:04:25.138Z,9.80
2023-04-12T11:09:44.174Z,9.99
2023-04-12T11:15:08.034Z,9.89
2023-04-12T11:20:28.330Z,9.66
2023-04-12T11:25:32.868Z,9.75
2023-04-12T11:30:35.610Z,9.91
2023-04-12T11:35:38.383Z,9.67
2023-04-12T11:40:43.613Z,10.12
2023-04-12T11:45:46.449Z,10.20
2023-04-12T11:50:59.858Z,10.34
2023-04-12T11:56:12.343Z,10.09
2023-04-12T12:01:15.713Z,9.98
2023-04-12T12:06:19.484Z,10.64
2023-04-12T12:11:24.689Z,10.76
2023-04-12T12:16:29.134Z,10.69
2023-04-12T12:21:32.474Z,10.60
2023-04-12T12:26:37.183Z,10.48
2023-04-12T12:31:47.510Z,10.48
2023-04-12T12:36:56.726Z,10.27
2023-04-12T12:42:02.721Z,10.37
2023-04-12T12:47:13.894Z,10.32
2023-04-12T12:52:17.961Z,10.51
2023-04-12T12:57:22.272Z,10.55
2023-04-12T13:02:25.272Z,10.86
2023-04-12T13:07:28.326Z,10.72
2023-04-12T13:12:32.528Z,10.57
2023-04-12T13:17:35.647Z,10.45
2023-04-12T13:22:38.458Z,10.25
2023-04-12T13:27:42.600Z,10.31
2023-04-12T13:32:45.692Z,10.30
2023-04-12T13:37:48.487Z,10.32
2023-04-12T13:42:52.633Z,10.39
2023-04-12T13:47:55.773Z,10.47
2023-04-12T13:52:58.637Z,10.48
2023-04-12T13:58:02.881Z,10.54
2023-04-12T14:03:05.739Z,10.46
2023-04-12T14:08:08.558Z,10.35
2023-04-12T14:13:13.048Z,10.16
2023-04-12T14:18:15.844Z,10.26
2023-04-12T14:23:18.783Z,10.23
2023-04-12T14:28:24.237Z,10.08
2023-04-12T14:33:27.025Z,10.27
2023-04-12T14:38:29.753Z,10.73
2023-04-12T14:43:33.867Z,11.11
2023-04-12T14:48:36.683Z,11.17
2023-04-12T14:53:39.536Z,10.96
2023-04-12T14:58:43.817Z,10.95
2023-04-12T15:03:47.558Z,10.76
2023-04-12T15:08:54.962Z,11.44
2023-04-12T15:13:59.715Z,11.37
2023-04-12T15:19:10.325Z,12.09
2023-04-12T15:24:16.426Z,12.39
2023-04-12T15:29:22.232Z,12.30
2023-04-12T15:34:25.244Z,12.36
2023-04-12T15:39:28.287Z,11.80
2023-04-12T15:44:32.538Z,11.61
2023-04-12T15:49:35.890Z,11.70
2023-04-12T15:54:43.588Z,11.15
2023-04-12T15:59:49.586Z,11.55
2023-04-12T16:04:55.987Z,11.78
2023-04-12T16:09:58.885Z,11.60
2023-04-12T16:15:03.201Z,11.47
2023-04-12T16:20:07.723Z,11.33
2023-04-12T16:25:11.948Z,11.53
2023-04-12T16:30:17.021Z,11.16
2023-04-12T16:35:19.849Z,10.59
2023-04-12T16:40:24.441Z,10.85
2023-04-12T16:45:28.630Z,8.98
2023-04-12T16:50:31.413Z,7.39
2023-04-12T16:55:34.455Z,6.85
2023-04-12T17:00:38.994Z,6.47
2023-04-12T17:05:42.312Z,6.85
2023-04-12T17:10:45.145Z,6.77
2023-04-12T17:15:49.292Z,6.94
2023-04-12T17:20:52.085Z,7.12
2023-04-12T17:25:54.927Z,6.99
2023-04-12T17:30:59.059Z,7.09
2023-04-12T17:36:02.524Z,6.70
2023-04-12T17:41:06.062Z,6.92
2023-04-12T17:46:10.178Z,7.17
2023-04-12T17:51:13.041Z,6.94
2023-04-12T17:56:15.825Z,7.09
2023-04-12T18:01:19.984Z,7.14
2023-04-12T18:06:23.766Z,7.14
2023-04-12T18:11:26.550Z,6.94
2023-04-12T18:16:31.841Z,7.46
2023-04-12T18:21:35.514Z,7.53
2023-04-12T18:26:38.296Z,7.37
2023-04-12T18:31:43.343Z,7.17
2023-04-12T18:36:46.345Z,7.11
2023-04-12T18:41:49.125Z,6.74
2023-04-12T18:46:53.240Z,6.84
2023-04-12T18:51:58.123Z,6.81
2023-04-12T18:57:03.339Z,6.78
2023-04-12T19:02:07.756Z,6.68
2023-04-12T19:07:10.714Z,6.74
2023-04-12T19:12:13.435Z,6.76
2023-04-12T19:17:17.574Z,6.71
2023-04-12T19:22:20.373Z,6.67
2023-04-12T19:27:23.664Z,6.62
2023-04-12T19:32:29.038Z,6.46
2023-04-12T19:37:34.113Z,6.32
2023-04-12T19:42:37.091Z,6.53
2023-04-12T19:47:44.821Z,6.50
2023-04-12T19:52:48.870Z,6.58
2023-04-12T19:57:51.857Z,6.65
2023-04-12T20:02:56.229Z,6.67
2023-04-12T20:07:59.016Z,6.61
2023-04-12T20:13:01.800Z,6.55
2023-04-12T20:18:06.783Z,6.48
2023-04-12T20:23:09.591Z,6.44
2023-04-12T20:28:13.440Z,6.44
2023-04-12T20:33:17.673Z,6.46
2023-04-12T20:38:20.455Z,6.50
2023-04-12T20:43:23.324Z,6.48
2023-04-12T20:48:27.583Z,6.43
2023-04-12T20:53:30.378Z,6.44
2023-04-12T20:58:34.865Z,6.37
2023-04-12T21:03:40.726Z,6.26
2023-04-12T21:08:44.497Z,6.22
2023-04-12T21:13:47.271Z,6.22
2023-04-12T21:18:53.201Z,6.20
2023-04-12T21:23:56.109Z,6.05
2023-04-12T21:28:59.210Z,6.02
2023-04-12T21:34:03.830Z,6.03
2023-04-12T21:39:07.684Z,5.98
2023-04-12T21:44:12.446Z,5.88
2023-04-12T21:49:16.561Z,5.79
2023-04-12T21:54:20.322Z,5.73
2023-04-12T21:59:23.481Z,5.77
2023-04-12T22:04:27.607Z,5.75
2023-04-12T22:09:30.390Z,5.71
2023-04-12T22:14:33.846Z,5.65
2023-04-12T22:19:38.008Z,5.66
2023-04-12T22:24:40.813Z,5.60
2023-04-12T22:29:43.688Z,5.62
2023-04-12T22:34:52.237Z,5.63
2023-04-12T22:40:01.986Z,5.75
2023-04-12T22:45:07.351Z,5.66
2023-04-12T22:50:12.659Z,5.73
2023-04-12T22:55:17.050Z,5.71
2023-04-12T23:00:19.834Z,5.68
2023-04-12T23:05:25.019Z,5.62
2023-04-12T23:10:28.118Z,5.71
2023-04-12T23:15:31.641Z,5.68
2023-04-12T23:20:36.897Z,5.67
2023-04-12T23:25:40.045Z,5.62
2023-04-12T23:30:44.700Z,5.57
2023-04-12T23:35:52.250Z,5.49
2023-04-12T23:40:55.592Z,5.49
2023-04-12T23:45:58.424Z,5.61
2023-04-12T23:51:02.951Z,5.41
2023-04-12T23:56:06.796Z,5.48
